<?xml version="1.0" encoding="UTF-8" standalone="no" ?>
<gpx xmlns="http://www.topografix.com/GPX/1/1" xmlns:xsi="http://www.w3.org/2001/XMLSchema-instance" xsi:schemaLocation="http://www.topografix.com/GPX/1/1 http://www.topografix.com/GPX/1/1/gpx.xsd" version="1.1" creator="VisuGPX - https://www.visugpx.com">
  <metadata>
    <name>Dourdan Saint-Mesmes</name>
    <desc><![CDATA[Rando pédestre entre forêts, champs et villages]]></desc>
  </metadata>
  <trk>
    <name><![CDATA[5474452-Dourdan-L'ouye-6 frères Ste Mesme-Dourdan]]></name>
    <trkseg>
      <trkpt lat="48.52809" lon="2.01157">
        <ele>96</ele>
        <time>2017-06-02T16:27:15Z</time>
      </trkpt>
      <trkpt lat="48.52743" lon="2.01084">
        <ele>95</ele>
        <time>2017-06-02T16:28:15Z</time>
      </trkpt>
      <trkpt lat="48.52632" lon="2.01007">
        <ele>98</ele>
        <time>2017-06-02T16:29:15Z</time>
      </trkpt>
      <trkpt lat="48.52502" lon="2.00956">
        <ele>105</ele>
        <time>2017-06-02T16:30:15Z</time>
      </trkpt>
      <trkpt lat="48.52507" lon="2.00891">
        <ele>106</ele>
        <time>2017-06-02T16:31:15Z</time>
      </trkpt>
      <trkpt lat="48.52305" lon="2.00763">
        <ele>115</ele>
        <time>2017-06-02T16:32:15Z</time>
      </trkpt>
      <trkpt lat="48.52237" lon="2.00681">
        <ele>121</ele>
        <time>2017-06-02T16:33:15Z</time>
      </trkpt>
      <trkpt lat="48.52121" lon="2.0063">
        <ele>129</ele>
        <time>2017-06-02T16:34:15Z</time>
      </trkpt>
      <trkpt lat="48.52081" lon="2.00578">
        <ele>129</ele>
        <time>2017-06-02T16:35:15Z</time>
      </trkpt>
      <trkpt lat="48.51964" lon="2.00509">
        <ele>122</ele>
        <time>2017-06-02T16:36:15Z</time>
      </trkpt>
      <trkpt lat="48.51885" lon="2.00518">
        <ele>118</ele>
        <time>2017-06-02T16:37:15Z</time>
      </trkpt>
      <trkpt lat="48.51794" lon="2.00574">
        <ele>116</ele>
        <time>2017-06-02T16:38:15Z</time>
      </trkpt>
      <trkpt lat="48.51649" lon="2.00531">
        <ele>106</ele>
        <time>2017-06-02T16:39:15Z</time>
      </trkpt>
      <trkpt lat="48.51501" lon="2.0084">
        <ele>109</ele>
        <time>2017-06-02T16:40:15Z</time>
      </trkpt>
      <trkpt lat="48.51458" lon="2.00947">
        <ele>110</ele>
        <time>2017-06-02T16:41:15Z</time>
      </trkpt>
      <trkpt lat="48.51402" lon="2.00973">
        <ele>114</ele>
        <time>2017-06-02T16:42:15Z</time>
      </trkpt>
      <trkpt lat="48.51268" lon="2.01248">
        <ele>126</ele>
        <time>2017-06-02T16:43:15Z</time>
      </trkpt>
      <trkpt lat="48.51245" lon="2.01299">
        <ele>129</ele>
        <time>2017-06-02T16:44:15Z</time>
      </trkpt>
      <trkpt lat="48.51149" lon="2.01248">
        <ele>137</ele>
        <time>2017-06-02T16:45:15Z</time>
      </trkpt>
      <trkpt lat="48.5108" lon="2.01205">
        <ele>146</ele>
        <time>2017-06-02T16:46:15Z</time>
      </trkpt>
      <trkpt lat="48.51009" lon="2.01213">
        <ele>154</ele>
        <time>2017-06-02T16:47:15Z</time>
      </trkpt>
      <trkpt lat="48.50915" lon="2.01157">
        <ele>159</ele>
        <time>2017-06-02T16:48:15Z</time>
      </trkpt>
      <trkpt lat="48.50796" lon="2.01063">
        <ele>161</ele>
        <time>2017-06-02T16:49:15Z</time>
      </trkpt>
      <trkpt lat="48.50787" lon="2.00956">
        <ele>161</ele>
        <time>2017-06-02T16:50:15Z</time>
      </trkpt>
      <trkpt lat="48.50768" lon="2.00771">
        <ele>157</ele>
        <time>2017-06-02T16:51:15Z</time>
      </trkpt>
      <trkpt lat="48.50799" lon="2.00625">
        <ele>159</ele>
        <time>2017-06-02T16:52:15Z</time>
      </trkpt>
      <trkpt lat="48.50827" lon="2.00544">
        <ele>162</ele>
        <time>2017-06-02T16:53:15Z</time>
      </trkpt>
      <trkpt lat="48.50836" lon="2.00355">
        <ele>164</ele>
        <time>2017-06-02T16:54:15Z</time>
      </trkpt>
      <trkpt lat="48.50759" lon="2.00248">
        <ele>164</ele>
        <time>2017-06-02T16:55:15Z</time>
      </trkpt>
      <trkpt lat="48.50688" lon="2.00239">
        <ele>162</ele>
        <time>2017-06-02T16:56:15Z</time>
      </trkpt>
      <trkpt lat="48.50617" lon="2.0026">
        <ele>161</ele>
        <time>2017-06-02T16:57:15Z</time>
      </trkpt>
      <trkpt lat="48.50665" lon="2.0014">
        <ele>150</ele>
        <time>2017-06-02T16:58:15Z</time>
      </trkpt>
      <trkpt lat="48.50685" lon="2.0002">
        <ele>133</ele>
        <time>2017-06-02T16:59:15Z</time>
      </trkpt>
      <trkpt lat="48.50722" lon="1.99879">
        <ele>114</ele>
        <time>2017-06-02T17:00:15Z</time>
      </trkpt>
      <trkpt lat="48.50696" lon="1.99698">
        <ele>105</ele>
        <time>2017-06-02T17:01:15Z</time>
      </trkpt>
      <trkpt lat="48.50674" lon="1.99518">
        <ele>110</ele>
        <time>2017-06-02T17:02:15Z</time>
      </trkpt>
      <trkpt lat="48.50657" lon="1.99419">
        <ele>114</ele>
        <time>2017-06-02T17:03:15Z</time>
      </trkpt>
      <trkpt lat="48.50657" lon="1.99145">
        <ele>125</ele>
        <time>2017-06-02T17:04:15Z</time>
      </trkpt>
      <trkpt lat="48.50662" lon="1.9905">
        <ele>128</ele>
        <time>2017-06-02T17:05:15Z</time>
      </trkpt>
      <trkpt lat="48.50605" lon="1.99085">
        <ele>128</ele>
        <time>2017-06-02T17:06:15Z</time>
      </trkpt>
      <trkpt lat="48.50517" lon="1.99115">
        <ele>130</ele>
        <time>2017-06-02T17:07:15Z</time>
      </trkpt>
      <trkpt lat="48.50503" lon="1.99205">
        <ele>124</ele>
        <time>2017-06-02T17:08:15Z</time>
      </trkpt>
      <trkpt lat="48.50199" lon="1.99256">
        <ele>138</ele>
        <time>2017-06-02T17:09:15Z</time>
      </trkpt>
      <trkpt lat="48.50139" lon="1.99312">
        <ele>136</ele>
        <time>2017-06-02T17:10:15Z</time>
      </trkpt>
      <trkpt lat="48.50105" lon="1.99359">
        <ele>130</ele>
        <time>2017-06-02T17:11:15Z</time>
      </trkpt>
      <trkpt lat="48.50031" lon="1.99351">
        <ele>128</ele>
        <time>2017-06-02T17:12:15Z</time>
      </trkpt>
      <trkpt lat="48.49969" lon="1.99321">
        <ele>128</ele>
        <time>2017-06-02T17:13:15Z</time>
      </trkpt>
      <trkpt lat="48.49892" lon="1.99269">
        <ele>132</ele>
        <time>2017-06-02T17:14:15Z</time>
      </trkpt>
      <trkpt lat="48.49829" lon="1.99209">
        <ele>135</ele>
        <time>2017-06-02T17:15:15Z</time>
      </trkpt>
      <trkpt lat="48.49721" lon="1.99213">
        <ele>149</ele>
        <time>2017-06-02T17:16:15Z</time>
      </trkpt>
      <trkpt lat="48.49664" lon="1.99196">
        <ele>156</ele>
        <time>2017-06-02T17:17:15Z</time>
      </trkpt>
      <trkpt lat="48.49624" lon="1.99235">
        <ele>155</ele>
        <time>2017-06-02T17:18:15Z</time>
      </trkpt>
      <trkpt lat="48.49562" lon="1.99085">
        <ele>159</ele>
        <time>2017-06-02T17:19:15Z</time>
      </trkpt>
      <trkpt lat="48.49619" lon="1.99012">
        <ele>156</ele>
        <time>2017-06-02T17:20:15Z</time>
      </trkpt>
      <trkpt lat="48.49678" lon="1.989">
        <ele>145</ele>
        <time>2017-06-02T17:21:15Z</time>
      </trkpt>
      <trkpt lat="48.4967" lon="1.9878">
        <ele>137</ele>
        <time>2017-06-02T17:22:15Z</time>
      </trkpt>
      <trkpt lat="48.49678" lon="1.98728">
        <ele>134</ele>
        <time>2017-06-02T17:23:15Z</time>
      </trkpt>
      <trkpt lat="48.49556" lon="1.98651">
        <ele>135</ele>
        <time>2017-06-02T17:24:15Z</time>
      </trkpt>
      <trkpt lat="48.49485" lon="1.98604">
        <ele>136</ele>
        <time>2017-06-02T17:25:15Z</time>
      </trkpt>
      <trkpt lat="48.49397" lon="1.98531">
        <ele>143</ele>
        <time>2017-06-02T17:26:15Z</time>
      </trkpt>
      <trkpt lat="48.49303" lon="1.98441">
        <ele>145</ele>
        <time>2017-06-02T17:27:15Z</time>
      </trkpt>
      <trkpt lat="48.49457" lon="1.98308">
        <ele>142</ele>
        <time>2017-06-02T17:28:15Z</time>
      </trkpt>
      <trkpt lat="48.49531" lon="1.98359">
        <ele>135</ele>
        <time>2017-06-02T17:29:15Z</time>
      </trkpt>
      <trkpt lat="48.49613" lon="1.98394">
        <ele>130</ele>
        <time>2017-06-02T17:30:15Z</time>
      </trkpt>
      <trkpt lat="48.4965" lon="1.98518">
        <ele>131</ele>
        <time>2017-06-02T17:31:15Z</time>
      </trkpt>
      <trkpt lat="48.49809" lon="1.98389">
        <ele>150</ele>
        <time>2017-06-02T17:32:15Z</time>
      </trkpt>
      <trkpt lat="48.49934" lon="1.98304">
        <ele>156</ele>
        <time>2017-06-02T17:33:15Z</time>
      </trkpt>
      <trkpt lat="48.50048" lon="1.98248">
        <ele>158</ele>
        <time>2017-06-02T17:34:15Z</time>
      </trkpt>
      <trkpt lat="48.50133" lon="1.98278">
        <ele>160</ele>
        <time>2017-06-02T17:35:15Z</time>
      </trkpt>
      <trkpt lat="48.5027" lon="1.98218">
        <ele>159</ele>
        <time>2017-06-02T17:36:15Z</time>
      </trkpt>
      <trkpt lat="48.50404" lon="1.98067">
        <ele>158</ele>
        <time>2017-06-02T17:37:15Z</time>
      </trkpt>
      <trkpt lat="48.50566" lon="1.97831">
        <ele>156</ele>
        <time>2017-06-02T17:38:15Z</time>
      </trkpt>
      <trkpt lat="48.50642" lon="1.97754">
        <ele>155</ele>
        <time>2017-06-02T17:39:15Z</time>
      </trkpt>
      <trkpt lat="48.50719" lon="1.97694">
        <ele>160</ele>
        <time>2017-06-02T17:40:15Z</time>
      </trkpt>
      <trkpt lat="48.50804" lon="1.97522">
        <ele>145</ele>
        <time>2017-06-02T17:41:15Z</time>
      </trkpt>
      <trkpt lat="48.50904" lon="1.97381">
        <ele>137</ele>
        <time>2017-06-02T17:42:15Z</time>
      </trkpt>
      <trkpt lat="48.50947" lon="1.97205">
        <ele>149</ele>
        <time>2017-06-02T17:43:15Z</time>
      </trkpt>
      <trkpt lat="48.51089" lon="1.96926">
        <ele>157</ele>
        <time>2017-06-02T17:44:15Z</time>
      </trkpt>
      <trkpt lat="48.51211" lon="1.97175">
        <ele>162</ele>
        <time>2017-06-02T17:45:15Z</time>
      </trkpt>
      <trkpt lat="48.51348" lon="1.97462">
        <ele>154</ele>
        <time>2017-06-02T17:46:15Z</time>
      </trkpt>
      <trkpt lat="48.51564" lon="1.97308">
        <ele>137</ele>
        <time>2017-06-02T17:47:15Z</time>
      </trkpt>
      <trkpt lat="48.51927" lon="1.97106">
        <ele>162</ele>
        <time>2017-06-02T17:48:15Z</time>
      </trkpt>
      <trkpt lat="48.52627" lon="1.97162">
        <ele>126</ele>
        <time>2017-06-02T17:49:15Z</time>
      </trkpt>
      <trkpt lat="48.5274" lon="1.97141">
        <ele>115</ele>
        <time>2017-06-02T17:50:15Z</time>
      </trkpt>
      <trkpt lat="48.52837" lon="1.96184">
        <ele>114</ele>
        <time>2017-06-02T17:51:15Z</time>
      </trkpt>
      <trkpt lat="48.53056" lon="1.96244">
        <ele>109</ele>
        <time>2017-06-02T17:52:15Z</time>
      </trkpt>
      <trkpt lat="48.53025" lon="1.96407">
        <ele>111</ele>
        <time>2017-06-02T17:53:15Z</time>
      </trkpt>
      <trkpt lat="48.53067" lon="1.96484">
        <ele>113</ele>
        <time>2017-06-02T17:54:15Z</time>
      </trkpt>
      <trkpt lat="48.53079" lon="1.9663">
        <ele>116</ele>
        <time>2017-06-02T17:55:15Z</time>
      </trkpt>
      <trkpt lat="48.53113" lon="1.96754">
        <ele>125</ele>
        <time>2017-06-02T17:56:15Z</time>
      </trkpt>
      <trkpt lat="48.53073" lon="1.96862">
        <ele>125</ele>
        <time>2017-06-02T17:57:15Z</time>
      </trkpt>
      <trkpt lat="48.53039" lon="1.96952">
        <ele>123</ele>
        <time>2017-06-02T17:58:15Z</time>
      </trkpt>
      <trkpt lat="48.5301" lon="1.97089">
        <ele>117</ele>
        <time>2017-06-02T17:59:15Z</time>
      </trkpt>
      <trkpt lat="48.53081" lon="1.97209">
        <ele>125</ele>
        <time>2017-06-02T18:00:15Z</time>
      </trkpt>
      <trkpt lat="48.53056" lon="1.97394">
        <ele>113</ele>
        <time>2017-06-02T18:01:15Z</time>
      </trkpt>
      <trkpt lat="48.53044" lon="1.97625">
        <ele>109</ele>
        <time>2017-06-02T18:02:15Z</time>
      </trkpt>
      <trkpt lat="48.53087" lon="1.97759">
        <ele>113</ele>
        <time>2017-06-02T18:03:15Z</time>
      </trkpt>
      <trkpt lat="48.53022" lon="1.97827">
        <ele>112</ele>
        <time>2017-06-02T18:04:15Z</time>
      </trkpt>
      <trkpt lat="48.53002" lon="1.98007">
        <ele>111</ele>
        <time>2017-06-02T18:05:15Z</time>
      </trkpt>
      <trkpt lat="48.52982" lon="1.98115">
        <ele>108</ele>
        <time>2017-06-02T18:06:15Z</time>
      </trkpt>
      <trkpt lat="48.53016" lon="1.98235">
        <ele>109</ele>
        <time>2017-06-02T18:07:15Z</time>
      </trkpt>
      <trkpt lat="48.53059" lon="1.98364">
        <ele>109</ele>
        <time>2017-06-02T18:08:15Z</time>
      </trkpt>
      <trkpt lat="48.53104" lon="1.98587">
        <ele>108</ele>
        <time>2017-06-02T18:09:15Z</time>
      </trkpt>
      <trkpt lat="48.53138" lon="1.98771">
        <ele>109</ele>
        <time>2017-06-02T18:10:15Z</time>
      </trkpt>
      <trkpt lat="48.53147" lon="1.98986">
        <ele>104</ele>
        <time>2017-06-02T18:11:15Z</time>
      </trkpt>
      <trkpt lat="48.53172" lon="1.99183">
        <ele>99</ele>
        <time>2017-06-02T18:12:15Z</time>
      </trkpt>
      <trkpt lat="48.53218" lon="1.99424">
        <ele>103</ele>
        <time>2017-06-02T18:13:15Z</time>
      </trkpt>
      <trkpt lat="48.53266" lon="1.99582">
        <ele>106</ele>
        <time>2017-06-02T18:14:15Z</time>
      </trkpt>
      <trkpt lat="48.533" lon="1.99728">
        <ele>105</ele>
        <time>2017-06-02T18:15:15Z</time>
      </trkpt>
      <trkpt lat="48.53306" lon="1.999">
        <ele>104</ele>
        <time>2017-06-02T18:16:15Z</time>
      </trkpt>
      <trkpt lat="48.53317" lon="2.00123">
        <ele>100</ele>
        <time>2017-06-02T18:17:15Z</time>
      </trkpt>
      <trkpt lat="48.53266" lon="2.00166">
        <ele>98</ele>
        <time>2017-06-02T18:18:15Z</time>
      </trkpt>
      <trkpt lat="48.53252" lon="2.00329">
        <ele>96</ele>
        <time>2017-06-02T18:19:15Z</time>
      </trkpt>
      <trkpt lat="48.53226" lon="2.00471">
        <ele>96</ele>
        <time>2017-06-02T18:20:15Z</time>
      </trkpt>
      <trkpt lat="48.53201" lon="2.00582">
        <ele>96</ele>
        <time>2017-06-02T18:21:15Z</time>
      </trkpt>
      <trkpt lat="48.53133" lon="2.00707">
        <ele>99</ele>
        <time>2017-06-02T18:22:15Z</time>
      </trkpt>
      <trkpt lat="48.53081" lon="2.00763">
        <ele>103</ele>
        <time>2017-06-02T18:23:15Z</time>
      </trkpt>
      <trkpt lat="48.53022" lon="2.0081">
        <ele>100</ele>
        <time>2017-06-02T18:24:15Z</time>
      </trkpt>
      <trkpt lat="48.52939" lon="2.00917">
        <ele>97</ele>
        <time>2017-06-02T18:25:15Z</time>
      </trkpt>
      <trkpt lat="48.52901" lon="2.00868">
        <ele>95</ele>
        <time>2017-06-02T18:26:15Z</time>
      </trkpt>
      <trkpt lat="48.52793" lon="2.0119">
        <ele>96</ele>
        <time>2017-06-02T18:27:15Z</time>
      </trkpt>
    </trkseg>
  </trk>
</gpx>